createdAt,value
2017-09-12T00:01:28.557Z,14.50
2017-09-12T00:03:56.015Z,14.40
2017-09-12T00:06:23.488Z,14.40
2017-09-12T00:08:51.722Z,14.40
2017-09-12T00:11:19.197Z,14.30
2017-09-12T00:13:46.657Z,14.30
2017-09-12T00:16:14.116Z,14.30
2017-09-12T00:18:41.586Z,14.30
2017-09-12T00:21:09.848Z,14.20
2017-09-12T00:23:38.099Z,14.20
2017-09-12T00:26:05.574Z,14.10
2017-09-12T00:28:33.097Z,14.20
2017-09-12T00:31:00.570Z,14.20
2017-09-12T00:33:28.036Z,14.10
2017-09-12T00:35:55.492Z,14.20
2017-09-12T00:38:22.965Z,14.10
2017-09-12T00:40:51.196Z,14.10
2017-09-12T00:43:18.679Z,14.00
2017-09-12T00:45:46.133Z,14.10
2017-09-12T00:48:13.664Z,14.10
2017-09-12T00:50:41.120Z,14.10
2017-09-12T00:53:08.589Z,14.00
2017-09-12T00:55:36.044Z,14.10
2017-09-12T00:58:03.547Z,14.10
2017-09-12T01:00:31.781Z,14.00
2017-09-12T01:02:59.252Z,14.00
2017-09-12T01:05:26.708Z,13.90
2017-09-12T01:07:54.174Z,13.90
2017-09-12T01:10:21.720Z,13.90
2017-09-12T01:12:49.285Z,13.80
2017-09-12T01:15:16.742Z,13.70
2017-09-12T01:17:44.230Z,13.90
2017-09-12T01:20:12.462Z,13.90
2017-09-12T01:22:40.461Z,13.90
2017-09-12T01:25:08.697Z,14.00
2017-09-12T01:27:36.282Z,13.90
2017-09-12T01:30:03.834Z,13.80
2017-09-12T01:32:31.298Z,13.80
2017-09-12T01:34:58.849Z,13.80
2017-09-12T01:37:26.370Z,13.80
2017-09-12T01:39:53.833Z,13.80
2017-09-12T01:42:21.311Z,13.80
2017-09-12T01:44:48.777Z,13.70
2017-09-12T01:47:16.247Z,13.70
2017-09-12T01:49:43.703Z,13.70
2017-09-12T01:52:11.194Z,13.70
2017-09-12T01:54:38.658Z,13.70
2017-09-12T01:57:06.112Z,13.70
2017-09-12T01:59:33.626Z,13.70
2017-09-12T02:02:01.089Z,13.70
2017-09-12T02:04:29.330Z,13.80
2017-09-12T02:06:56.789Z,13.70
2017-09-12T02:09:24.273Z,13.80
2017-09-12T02:11:51.727Z,13.90
2017-09-12T02:14:19.283Z,13.90
2017-09-12T02:16:46.743Z,14.00
2017-09-12T02:19:14.210Z,14.00
2017-09-12T02:21:42.472Z,13.90
2017-09-12T02:24:09.946Z,13.90
2017-09-12T02:26:38.207Z,13.90
2017-09-12T02:29:05.669Z,13.90
2017-09-12T02:31:33.137Z,13.90
2017-09-12T02:34:01.379Z,13.80
2017-09-12T02:36:28.833Z,13.80
2017-09-12T02:38:56.306Z,13.80
2017-09-12T02:41:23.771Z,13.80
2017-09-12T02:43:51.233Z,13.70
2017-09-12T02:46:19.495Z,13.80
2017-09-12T02:48:46.958Z,13.80
2017-09-12T02:51:14.504Z,13.80
2017-09-12T02:53:41.970Z,13.80
2017-09-12T02:56:09.433Z,13.80
2017-09-12T02:58:37.662Z,13.70
2017-09-12T03:01:05.155Z,13.70
2017-09-12T03:03:32.637Z,13.70
2017-09-12T03:06:00.864Z,13.60
2017-09-12T03:08:28.338Z,13.60
2017-09-12T03:10:55.901Z,13.60
2017-09-12T03:13:23.362Z,13.60
2017-09-12T03:15:50.812Z,13.60
2017-09-12T03:18:18.386Z,13.60
2017-09-12T03:20:46.617Z,13.60
2017-09-12T03:23:14.091Z,13.60
2017-09-12T03:25:41.558Z,13.60
2017-09-12T03:28:10.532Z,13.60
2017-09-12T03:30:38.011Z,13.60
2017-09-12T03:33:05.456Z,13.50
2017-09-12T03:35:33.017Z,13.40
2017-09-12T03:38:00.477Z,13.40
2017-09-12T03:40:27.954Z,13.40
2017-09-12T03:42:56.345Z,13.40
2017-09-12T03:45:24.595Z,13.50
2017-09-12T03:47:52.048Z,13.40
2017-09-12T03:50:19.600Z,13.50
2017-09-12T03:52:47.825Z,13.50
2017-09-12T03:55:15.306Z,13.50
2017-09-12T03:57:42.767Z,13.40
2017-09-12T04:00:10.237Z,13.40
2017-09-12T04:02:37.710Z,13.30
2017-09-12T04:05:05.269Z,13.20
2017-09-12T04:07:32.729Z,13.30
2017-09-12T04:10:00.282Z,13.30
2017-09-12T04:12:27.746Z,13.20
2017-09-12T04:14:55.976Z,13.20
2017-09-12T04:17:23.429Z,13.20
2017-09-12T04:19:50.911Z,13.20
2017-09-12T04:22:18.370Z,13.20
2017-09-12T04:24:45.941Z,13.20
2017-09-12T04:27:13.510Z,13.10
2017-09-12T04:29:41.778Z,13.10
2017-09-12T04:32:09.232Z,13.10
2017-09-12T04:34:36.801Z,13.20
2017-09-12T04:37:05.052Z,13.20
2017-09-12T04:39:32.512Z,13.10
2017-09-12T04:42:00.077Z,13.20
2017-09-12T04:44:27.638Z,13.20
2017-09-12T04:46:55.198Z,13.20
2017-09-12T04:49:22.765Z,13.20
2017-09-12T04:51:50.351Z,13.20
2017-09-12T04:54:17.972Z,13.20
2017-09-12T04:56:45.509Z,13.20
2017-09-12T04:59:13.006Z,13.20
2017-09-12T05:01:40.480Z,13.30
2017-09-12T05:04:08.201Z,13.30
2017-09-12T05:06:35.674Z,13.40
2017-09-12T05:09:03.146Z,13.40
2017-09-12T05:11:31.402Z,13.50
2017-09-12T05:13:58.864Z,13.40
2017-09-12T05:16:26.422Z,13.40
2017-09-12T05:18:53.880Z,13.40
2017-09-12T05:21:21.341Z,13.40
2017-09-12T05:23:49.659Z,13.50
2017-09-12T05:26:17.125Z,13.40
2017-09-12T05:28:44.582Z,13.50
2017-09-12T05:31:12.070Z,13.50
2017-09-12T05:33:39.639Z,13.50
2017-09-12T05:36:07.106Z,13.40
2017-09-12T05:38:34.589Z,13.40
2017-09-12T05:41:02.162Z,13.40
2017-09-12T05:43:29.694Z,13.40
2017-09-12T05:45:57.937Z,13.40
2017-09-12T05:48:26.178Z,13.60
2017-09-12T05:50:53.731Z,13.50
2017-09-12T05:53:21.289Z,13.70
2017-09-12T05:55:48.788Z,13.70
2017-09-12T05:58:16.252Z,13.70
2017-09-12T06:00:43.718Z,13.60
2017-09-12T06:03:11.975Z,13.70
2017-09-12T06:05:39.442Z,13.60
2017-09-12T06:08:07.676Z,13.90
2017-09-12T06:10:35.173Z,13.80
2017-09-12T06:13:02.723Z,13.80
2017-09-12T06:15:30.202Z,13.80
2017-09-12T06:17:58.438Z,13.90
2017-09-12T06:20:25.915Z,13.90
2017-09-12T06:22:53.470Z,13.90
2017-09-12T06:25:20.947Z,14.00
2017-09-12T06:27:49.187Z,14.10
2017-09-12T06:30:16.670Z,14.10
2017-09-12T06:32:44.941Z,14.20
2017-09-12T06:35:12.398Z,14.10
2017-09-12T06:37:39.867Z,14.10
2017-09-12T06:40:08.108Z,14.40
2017-09-12T06:42:35.570Z,14.30
2017-09-12T06:45:03.142Z,14.20
2017-09-12T06:47:30.619Z,14.30
2017-09-12T06:49:58.931Z,14.40
2017-09-12T06:52:26.405Z,14.30
2017-09-12T06:54:53.870Z,14.40
2017-09-12T06:57:21.331Z,14.40
2017-09-12T06:59:48.797Z,14.40
2017-09-12T07:02:16.369Z,14.50
2017-09-12T07:04:44.609Z,14.60
2017-09-12T07:07:12.090Z,14.60
2017-09-12T07:09:39.645Z,14.70
2017-09-12T07:12:09.001Z,14.70
2017-09-12T07:14:36.467Z,14.80
2017-09-12T07:17:03.947Z,14.80
2017-09-12T07:19:31.409Z,14.90
2017-09-12T07:21:58.874Z,14.90
2017-09-12T07:24:26.335Z,14.90
2017-09-12T07:26:53.881Z,14.80
2017-09-12T07:29:21.449Z,14.80
2017-09-12T07:31:49.009Z,14.80
2017-09-12T07:34:16.557Z,14.90
2017-09-12T07:36:44.017Z,15.00
2017-09-12T07:39:11.487Z,15.00
2017-09-12T07:41:38.953Z,15.10
2017-09-12T07:44:07.186Z,15.00
2017-09-12T07:46:34.662Z,15.00
2017-09-12T07:49:02.125Z,15.10
2017-09-12T07:51:29.702Z,15.30
2017-09-12T07:53:57.945Z,15.40
2017-09-12T07:56:25.417Z,15.40
2017-09-12T07:58:52.891Z,15.40
2017-09-12T08:01:21.172Z,15.60
2017-09-12T08:03:49.405Z,15.60
2017-09-12T08:06:16.976Z,15.50
2017-09-12T08:08:44.442Z,15.60
2017-09-12T08:11:11.905Z,15.60
2017-09-12T08:13:40.150Z,15.50
2017-09-12T08:16:07.633Z,15.40
2017-09-12T08:18:35.143Z,15.50
2017-09-12T08:21:02.606Z,15.50
2017-09-12T08:23:30.085Z,15.60
2017-09-12T08:25:57.603Z,15.60
2017-09-12T08:28:25.123Z,15.70
2017-09-12T08:30:52.582Z,15.80
2017-09-12T08:33:20.826Z,16.00
2017-09-12T08:35:48.295Z,15.90
2017-09-12T08:38:15.787Z,15.80
2017-09-12T08:40:44.014Z,15.70
2017-09-12T08:43:11.597Z,15.70
2017-09-12T08:45:39.103Z,15.70
2017-09-12T08:48:06.586Z,16.00
2017-09-12T08:50:34.061Z,16.20
2017-09-12T08:53:01.541Z,16.30
2017-09-12T08:55:29.770Z,16.30
2017-09-12T08:57:57.232Z,16.30
2017-09-12T09:00:24.805Z,16.40
2017-09-12T09:02:52.281Z,16.60
2017-09-12T09:05:19.778Z,16.90
2017-09-12T09:07:47.285Z,17.10
2017-09-12T09:10:14.754Z,17.20
2017-09-12T09:12:43.023Z,17.10
2017-09-12T09:15:10.491Z,17.00
2017-09-12T09:17:38.709Z,17.10
2017-09-12T09:20:06.209Z,17.10
2017-09-12T09:22:33.682Z,17.10
2017-09-12T09:25:01.944Z,17.30
2017-09-12T09:27:29.410Z,17.30
2017-09-12T09:29:57.644Z,17.40
2017-09-12T09:32:25.107Z,17.40
2017-09-12T09:34:52.577Z,17.60
2017-09-12T09:37:20.091Z,18.00
2017-09-12T09:39:47.555Z,18.30
2017-09-12T09:42:15.026Z,18.20
2017-09-12T09:44:42.518Z,18.20
2017-09-12T09:47:09.986Z,18.20
2017-09-12T09:49:38.262Z,18.10
2017-09-12T09:52:06.477Z,18.10
2017-09-12T09:54:33.944Z,18.10
2017-09-12T09:57:01.399Z,18.10
2017-09-12T09:59:28.862Z,18.10
2017-09-12T10:01:56.367Z,18.10
2017-09-12T10:04:24.598Z,18.10
2017-09-12T10:06:52.058Z,18.10
2017-09-12T10:09:19.531Z,18.00
2017-09-12T10:11:47.753Z,17.80
2017-09-12T10:14:15.317Z,17.70
2017-09-12T10:16:42.827Z,17.70
2017-09-12T10:19:11.820Z,17.70
2017-09-12T10:21:40.088Z,17.90
2017-09-12T10:24:07.573Z,17.80
2017-09-12T10:26:35.813Z,18.10
2017-09-12T10:29:03.313Z,18.00
2017-09-12T10:31:31.522Z,18.20
2017-09-12T10:33:58.981Z,18.20
2017-09-12T10:36:26.437Z,18.30
2017-09-12T10:38:53.975Z,18.20
2017-09-12T10:41:21.481Z,18.20
2017-09-12T10:43:49.712Z,18.30
2017-09-12T10:46:17.317Z,18.30
2017-09-12T10:48:44.818Z,18.40
2017-09-12T10:51:12.384Z,18.40
2017-09-12T10:53:39.838Z,18.30
2017-09-12T10:56:07.301Z,18.40
2017-09-12T10:58:34.771Z,18.50
2017-09-12T11:01:02.258Z,18.50
2017-09-12T11:03:29.777Z,18.50
2017-09-12T11:05:57.236Z,18.60
2017-09-12T11:08:24.726Z,18.50
2017-09-12T11:10:52.193Z,18.50
2017-09-12T11:13:20.446Z,18.80
2017-09-12T11:15:47.903Z,18.80
2017-09-12T11:18:15.375Z,18.70
2017-09-12T11:20:42.849Z,18.80
2017-09-12T11:23:11.112Z,18.60
2017-09-12T11:25:38.569Z,18.60
2017-09-12T11:28:06.034Z,18.40
2017-09-12T11:30:34.333Z,18.30
2017-09-12T11:33:01.790Z,18.30
2017-09-12T11:35:29.261Z,18.30
2017-09-12T11:37:56.731Z,18.40
2017-09-12T11:40:24.215Z,18.50
2017-09-12T11:42:51.687Z,18.60
2017-09-12T11:45:19.145Z,18.60
2017-09-12T11:47:47.546Z,18.70
2017-09-12T11:50:15.009Z,18.70
2017-09-12T11:52:42.465Z,18.60
2017-09-12T11:55:09.941Z,18.50
2017-09-12T11:57:37.438Z,18.40
2017-09-12T12:00:04.899Z,18.40
2017-09-12T12:02:32.365Z,18.30
2017-09-12T12:04:59.835Z,18.30
2017-09-12T12:07:28.091Z,18.80
2017-09-12T12:09:55.557Z,18.70
2017-09-12T12:12:23.815Z,20.20
2017-09-12T12:14:52.819Z,20.70
2017-09-12T12:17:20.293Z,20.70
2017-09-12T12:19:48.523Z,20.70
2017-09-12T12:22:15.978Z,20.60
2017-09-12T12:24:43.433Z,20.10
2017-09-12T12:27:10.889Z,19.70
2017-09-12T12:29:38.345Z,19.60
2017-09-12T12:32:05.823Z,19.40
2017-09-12T12:34:33.292Z,19.30
2017-09-12T12:37:01.525Z,19.20
2017-09-12T12:39:28.989Z,19.10
2017-09-12T12:41:56.456Z,19.20
2017-09-12T12:44:24.688Z,19.10
2017-09-12T12:46:52.151Z,19.00
2017-09-12T12:49:19.618Z,19.00
2017-09-12T12:51:47.081Z,19.00
2017-09-12T12:54:14.544Z,18.90
2017-09-12T12:56:42.080Z,18.90
2017-09-12T12:59:09.589Z,18.80
2017-09-12T13:01:37.049Z,18.80
2017-09-12T13:04:04.593Z,18.80
2017-09-12T13:06:32.166Z,18.80
2017-09-12T13:08:59.626Z,18.60
2017-09-12T13:11:27.086Z,18.20
2017-09-12T13:13:55.313Z,17.90
2017-09-12T13:16:22.802Z,17.80
2017-09-12T13:18:50.269Z,17.60
2017-09-12T13:21:18.498Z,17.20
2017-09-12T13:23:45.953Z,17.20
2017-09-12T13:26:13.454Z,17.20
2017-09-12T13:28:42.441Z,16.80
2017-09-12T13:31:09.905Z,16.80
2017-09-12T13:33:37.364Z,16.60
2017-09-12T13:36:04.918Z,16.60
2017-09-12T13:38:33.189Z,16.60
2017-09-12T13:41:01.473Z,16.90
2017-09-12T13:43:29.035Z,16.80
2017-09-12T13:45:57.257Z,18.10
2017-09-12T13:48:24.767Z,18.10
2017-09-12T13:50:52.221Z,18.50
2017-09-12T13:53:19.697Z,18.70
2017-09-12T13:55:47.928Z,19.10
2017-09-12T13:58:15.395Z,19.10
2017-09-12T14:00:43.634Z,19.70
2017-09-12T14:03:11.132Z,19.70
2017-09-12T14:05:38.602Z,19.60
2017-09-12T14:08:06.831Z,20.20
2017-09-12T14:10:34.321Z,20.20
2017-09-12T14:13:01.777Z,20.60
2017-09-12T14:15:29.250Z,20.80
2017-09-12T14:17:57.477Z,21.30
2017-09-12T14:20:24.941Z,21.30
2017-09-12T14:22:52.473Z,21.60
2017-09-12T14:25:19.977Z,21.40
2017-09-12T14:27:47.438Z,21.40
2017-09-12T14:30:14.899Z,21.40
2017-09-12T14:32:42.372Z,21.20
2017-09-12T14:35:10.593Z,21.60
2017-09-12T14:37:38.066Z,21.50
2017-09-12T14:40:05.522Z,21.50
2017-09-12T14:42:32.989Z,21.30
2017-09-12T14:45:00.457Z,21.30
2017-09-12T14:47:27.917Z,20.90
2017-09-12T14:49:55.365Z,20.40
2017-09-12T14:52:22.852Z,20.10
2017-09-12T14:54:50.377Z,20.00
2017-09-12T14:57:17.849Z,19.90
2017-09-12T14:59:46.080Z,19.70
2017-09-12T15:02:13.566Z,19.70
2017-09-12T15:04:41.026Z,19.60
2017-09-12T15:07:08.545Z,19.50
2017-09-12T15:09:36.016Z,19.40
2017-09-12T15:12:03.493Z,19.30
2017-09-12T15:14:30.962Z,19.10
2017-09-12T15:16:58.513Z,19.10
2017-09-12T15:19:26.062Z,19.20
2017-09-12T15:21:53.520Z,19.30
2017-09-12T15:24:20.981Z,19.30
2017-09-12T15:26:48.532Z,19.30
2017-09-12T15:29:16.094Z,19.30
2017-09-12T15:31:44.333Z,19.90
2017-09-12T15:34:11.802Z,19.80
2017-09-12T15:36:39.270Z,20.70
2017-09-12T15:39:06.724Z,21.70
2017-09-12T15:41:34.209Z,22.30
2017-09-12T15:44:01.920Z,22.80
2017-09-12T15:46:29.490Z,23.10
2017-09-12T15:48:56.958Z,23.50
2017-09-12T15:51:24.536Z,23.20
2017-09-12T15:53:52.000Z,22.70
2017-09-12T15:56:19.470Z,22.80
2017-09-12T15:58:47.719Z,24.50
2017-09-12T16:01:15.177Z,24.40
2017-09-12T16:03:42.640Z,24.20
2017-09-12T16:06:10.107Z,23.80
2017-09-12T16:08:37.641Z,23.80
2017-09-12T16:11:05.210Z,24.10
2017-09-12T16:13:32.762Z,24.60
2017-09-12T16:16:00.221Z,24.40
2017-09-12T16:18:27.781Z,25.00
2017-09-12T16:20:55.238Z,25.60
2017-09-12T16:23:22.698Z,25.00
2017-09-12T16:25:50.158Z,23.90
2017-09-12T16:28:17.632Z,22.70
2017-09-12T16:30:45.858Z,22.70
2017-09-12T16:33:13.334Z,22.60
2017-09-12T16:35:41.619Z,23.90
2017-09-12T16:38:09.126Z,23.80
2017-09-12T16:40:36.581Z,24.10
2017-09-12T16:43:04.043Z,23.90
2017-09-12T16:45:31.545Z,22.90
2017-09-12T16:47:59.021Z,22.20
2017-09-12T16:50:27.277Z,21.10
2017-09-12T16:52:54.735Z,21.00
2017-09-12T16:55:22.301Z,20.70
2017-09-12T16:57:49.762Z,20.40
2017-09-12T17:00:17.988Z,19.40
2017-09-12T17:02:45.446Z,19.40
2017-09-12T17:05:12.969Z,19.20
2017-09-12T17:07:41.187Z,18.70
2017-09-12T17:10:08.650Z,18.70
2017-09-12T17:12:36.125Z,18.70
2017-09-12T17:15:03.602Z,18.70
2017-09-12T17:17:31.865Z,18.50
2017-09-12T17:20:00.835Z,18.40
2017-09-12T17:22:28.289Z,18.40
2017-09-12T17:24:55.862Z,18.30
2017-09-12T17:27:23.318Z,18.30
2017-09-12T17:29:50.793Z,18.20
2017-09-12T17:32:18.329Z,17.90
2017-09-12T17:34:45.847Z,17.80
2017-09-12T17:37:13.317Z,17.80
2017-09-12T17:39:40.773Z,17.80
2017-09-12T17:42:08.269Z,17.70
2017-09-12T17:44:36.545Z,17.60
2017-09-12T17:47:04.050Z,17.60
2017-09-12T17:49:31.517Z,17.40
2017-09-12T17:51:59.031Z,17.30
2017-09-12T17:54:27.278Z,17.30
2017-09-12T17:56:54.850Z,17.20
2017-09-12T17:59:23.141Z,16.90
2017-09-12T18:01:51.402Z,16.90
2017-09-12T18:04:19.630Z,17.00
2017-09-12T18:06:47.090Z,16.90
2017-09-12T18:09:14.542Z,17.00
2017-09-12T18:11:42.017Z,16.90
2017-09-12T18:14:09.502Z,16.90
2017-09-12T18:16:37.728Z,16.90
2017-09-12T18:19:05.186Z,16.80
2017-09-12T18:21:32.645Z,16.80
2017-09-12T18:24:00.101Z,16.80
2017-09-12T18:26:27.556Z,16.80
2017-09-12T18:28:55.045Z,16.90
2017-09-12T18:31:22.537Z,16.70
2017-09-12T18:33:50.768Z,16.70
2017-09-12T18:36:18.446Z,16.60
2017-09-12T18:38:45.909Z,16.60
2017-09-12T18:41:14.133Z,16.50
2017-09-12T18:43:41.641Z,16.40
2017-09-12T18:46:11.173Z,16.30
2017-09-12T18:48:39.772Z,16.20
2017-09-12T18:51:07.284Z,16.20
2017-09-12T18:53:34.844Z,16.20
2017-09-12T18:56:02.444Z,16.20
2017-09-12T18:58:29.952Z,16.20
2017-09-12T19:00:58.201Z,16.10
2017-09-12T19:03:26.155Z,16.10
2017-09-12T19:05:53.609Z,16.10
2017-09-12T19:08:21.077Z,16.00
2017-09-12T19:10:48.538Z,15.90
2017-09-12T19:13:16.050Z,15.80
2017-09-12T19:15:44.274Z,15.70
2017-09-12T19:18:11.816Z,15.70
2017-09-12T19:20:39.266Z,15.70
2017-09-12T19:23:06.726Z,15.60
2017-09-12T19:25:34.222Z,15.60
2017-09-12T19:28:01.696Z,15.40
2017-09-12T19:30:29.301Z,15.30
2017-09-12T19:32:56.758Z,15.30
2017-09-12T19:35:24.225Z,15.40
2017-09-12T19:37:51.717Z,15.40
2017-09-12T19:40:19.187Z,15.40
2017-09-12T19:42:46.684Z,15.40
2017-09-12T19:45:14.144Z,15.40
2017-09-12T19:47:41.601Z,15.40
2017-09-12T19:50:09.085Z,15.40
2017-09-12T19:52:36.537Z,15.40
2017-09-12T19:55:04.122Z,15.50
2017-09-12T19:57:31.635Z,15.60
2017-09-12T19:59:59.125Z,15.70
2017-09-12T20:02:26.627Z,15.90
2017-09-12T20:04:54.098Z,15.90
2017-09-12T20:07:21.583Z,16.00
2017-09-12T20:09:49.114Z,16.00
2017-09-12T20:12:16.582Z,16.00
2017-09-12T20:14:44.056Z,16.00
2017-09-12T20:17:11.667Z,16.00
2017-09-12T20:19:39.117Z,15.80
2017-09-12T20:22:07.371Z,15.30
2017-09-12T20:24:34.836Z,15.20
2017-09-12T20:27:03.085Z,15.10
2017-09-12T20:29:30.713Z,15.00
2017-09-12T20:31:58.191Z,15.10
2017-09-12T20:34:25.658Z,15.00
2017-09-12T20:36:53.246Z,14.90
2017-09-12T20:39:21.461Z,14.70
2017-09-12T20:41:49.324Z,14.70
2017-09-12T20:44:16.830Z,14.80
2017-09-12T20:46:46.652Z,14.90
2017-09-12T20:49:15.073Z,14.80
2017-09-12T20:51:42.722Z,14.80
2017-09-12T20:54:10.190Z,14.70
2017-09-12T20:56:37.714Z,14.60
2017-09-12T20:59:06.276Z,14.60
2017-09-12T21:01:36.218Z,14.60
2017-09-12T21:04:04.531Z,14.70
2017-09-12T21:06:32.085Z,14.70
2017-09-12T21:08:59.643Z,14.70
2017-09-12T21:11:27.309Z,14.80
2017-09-12T21:13:54.813Z,14.90
2017-09-12T21:16:22.385Z,15.00
2017-09-12T21:18:50.884Z,15.00
2017-09-12T21:21:18.363Z,15.00
2017-09-12T21:23:45.824Z,15.00
2017-09-12T21:26:13.293Z,15.00
2017-09-12T21:28:40.877Z,15.00
2017-09-12T21:31:09.421Z,14.80
2017-09-12T21:33:36.921Z,14.70
2017-09-12T21:36:04.379Z,14.70
2017-09-12T21:38:32.647Z,14.40
2017-09-12T21:41:00.114Z,14.40
2017-09-12T21:43:27.576Z,14.50
2017-09-12T21:45:55.819Z,14.40
2017-09-12T21:48:23.313Z,14.30
2017-09-12T21:50:51.573Z,14.20
2017-09-12T21:53:19.044Z,14.20
2017-09-12T21:55:47.278Z,14.10
2017-09-12T21:58:14.738Z,14.00
2017-09-12T22:00:42.214Z,14.10
2017-09-12T22:03:09.775Z,14.00
2017-09-12T22:05:38.034Z,14.00
2017-09-12T22:08:06.329Z,14.00
2017-09-12T22:10:33.797Z,13.90
2017-09-12T22:13:02.020Z,13.90
2017-09-12T22:15:29.608Z,13.80
2017-09-12T22:17:57.881Z,13.90
2017-09-12T22:20:25.449Z,13.90
2017-09-12T22:22:52.905Z,13.90
2017-09-12T22:25:20.379Z,13.90
2017-09-12T22:27:48.615Z,13.80
2017-09-12T22:30:16.112Z,13.70
2017-09-12T22:32:44.369Z,13.80
2017-09-12T22:35:11.842Z,13.80
2017-09-12T22:37:40.081Z,13.70
2017-09-12T22:40:07.606Z,13.60
2017-09-12T22:42:35.117Z,13.70
2017-09-12T22:45:02.590Z,13.80
2017-09-12T22:47:30.849Z,13.60
2017-09-12T22:49:58.406Z,13.50
2017-09-12T22:52:25.885Z,13.50
2017-09-12T22:54:54.135Z,13.50
2017-09-12T22:57:21.604Z,13.50
2017-09-12T22:59:49.838Z,13.60
2017-09-12T23:02:17.378Z,13.50
2017-09-12T23:04:44.885Z,13.50
2017-09-12T23:07:12.394Z,13.40
2017-09-12T23:09:39.854Z,13.50
2017-09-12T23:12:07.320Z,13.50
2017-09-12T23:14:34.806Z,13.50
2017-09-12T23:17:02.281Z,13.50
2017-09-12T23:19:30.513Z,13.50
2017-09-12T23:21:57.973Z,13.40
2017-09-12T23:24:25.450Z,13.50
2017-09-12T23:26:52.954Z,13.50
2017-09-12T23:29:20.414Z,13.50
2017-09-12T23:31:47.921Z,13.50
2017-09-12T23:34:15.729Z,13.50
2017-09-12T23:36:43.245Z,13.50
2017-09-12T23:39:10.805Z,13.50
2017-09-12T23:41:38.352Z,13.40
2017-09-12T23:44:05.913Z,13.20
2017-09-12T23:46:33.387Z,13.20
2017-09-12T23:49:00.935Z,13.10
2017-09-12T23:51:28.484Z,13.00
2017-09-12T23:53:55.965Z,13.00
2017-09-12T23:56:24.190Z,13.00
2017-09-12T23:58:51.682Z,12.90
